sensor_id;sensor_type;location;lat;lon;timestamp;P1;durP1;ratioP1;P2;durP2;ratioP2
54993;SDS011;40891;47.242;8.648;2023-08-17T00:01:49;2.42;;;1.52;;
54993;SDS011;40891;47.242;8.648;2023-08-17T00:04:15;5.13;;;1.70;;
54993;SDS011;40891;47.242;8.648;2023-08-17T00:06:40;4.13;;;1.50;;
54993;SDS011;40891;47.242;8.648;2023-08-17T00:09:05;4.35;;;1.70;;
54993;SDS011;40891;47.242;8.648;2023-08-17T00:11:31;2.08;;;1.50;;
54993;SDS011;40891;47.242;8.648;2023-08-17T00:13:57;1.80;;;1.40;;
54993;SDS011;40891;47.242;8.648;2023-08-17T00:16:22;4.15;;;1.55;;
54993;SDS011;40891;47.242;8.648;2023-08-17T00:18:48;2.20;;;1.60;;
54993;SDS011;40891;47.242;8.648;2023-08-17T00:21:14;2.40;;;1.48;;
54993;SDS011;40891;47.242;8.648;2023-08-17T00:23:39;2.08;;;1.60;;
54993;SDS011;40891;47.242;8.648;2023-08-17T00:26:05;3.35;;;1.83;;
54993;SDS011;40891;47.242;8.648;2023-08-17T00:28:30;2.75;;;1.73;;
54993;SDS011;40891;47.242;8.648;2023-08-17T00:30:55;5.68;;;1.75;;
54993;SDS011;40891;47.242;8.648;2023-08-17T00:33:21;4.20;;;1.90;;
54993;SDS011;40891;47.242;8.648;2023-08-17T00:35:46;6.28;;;1.75;;
54993;SDS011;40891;47.242;8.648;2023-08-17T00:38:12;1.90;;;1.33;;
54993;SDS011;40891;47.242;8.648;2023-08-17T00:40:37;4.75;;;2.08;;
54993;SDS011;40891;47.242;8.648;2023-08-17T00:43:03;3.35;;;1.50;;
54993;SDS011;40891;47.242;8.648;2023-08-17T00:45:28;2.97;;;1.55;;
54993;SDS011;40891;47.242;8.648;2023-08-17T00:47:55;2.47;;;1.65;;
54993;SDS011;40891;47.242;8.648;2023-08-17T00:50:22;4.15;;;1.60;;
54993;SDS011;40891;47.242;8.648;2023-08-17T00:52:48;2.75;;;1.60;;
54993;SDS011;40891;47.242;8.648;2023-08-17T00:55:15;3.28;;;1.83;;
54993;SDS011;40891;47.242;8.648;2023-08-17T00:57:40;4.15;;;2.00;;
54993;SDS011;40891;47.242;8.648;2023-08-17T01:00:06;6.72;;;1.80;;
54993;SDS011;40891;47.242;8.648;2023-08-17T01:02:34;4.20;;;2.20;;
54993;SDS011;40891;47.242;8.648;2023-08-17T01:04:59;2.38;;;1.98;;
54993;SDS011;40891;47.242;8.648;2023-08-17T01:07:25;3.15;;;1.95;;
54993;SDS011;40891;47.242;8.648;2023-08-17T01:09:51;3.20;;;1.83;;
54993;SDS011;40891;47.242;8.648;2023-08-17T01:12:24;3.50;;;2.05;;
54993;SDS011;40891;47.242;8.648;2023-08-17T01:18:20;7.97;;;2.08;;
54993;SDS011;40891;47.242;8.648;2023-08-17T01:20:48;6.28;;;2.00;;
54993;SDS011;40891;47.242;8.648;2023-08-17T01:23:14;3.45;;;1.80;;
54993;SDS011;40891;47.242;8.648;2023-08-17T01:25:40;3.63;;;1.90;;
54993;SDS011;40891;47.242;8.648;2023-08-17T01:28:05;5.15;;;2.05;;
54993;SDS011;40891;47.242;8.648;2023-08-17T01:33:35;3.70;;;1.90;;
54993;SDS011;40891;47.242;8.648;2023-08-17T01:36:13;4.03;;;2.13;;
54993;SDS011;40891;47.242;8.648;2023-08-17T01:38:45;4.53;;;2.10;;
54993;SDS011;40891;47.242;8.648;2023-08-17T01:41:11;7.65;;;1.90;;
54993;SDS011;40891;47.242;8.648;2023-08-17T01:43:41;5.72;;;2.33;;
54993;SDS011;40891;47.242;8.648;2023-08-17T01:46:12;3.28;;;1.98;;
54993;SDS011;40891;47.242;8.648;2023-08-17T01:48:40;4.40;;;2.22;;
54993;SDS011;40891;47.242;8.648;2023-08-17T01:51:05;3.15;;;2.10;;
54993;SDS011;40891;47.242;8.648;2023-08-17T01:53:30;1.77;;;1.67;;
54993;SDS011;40891;47.242;8.648;2023-08-17T01:55:56;2.50;;;1.88;;
54993;SDS011;40891;47.242;8.648;2023-08-17T01:58:21;3.25;;;2.28;;
54993;SDS011;40891;47.242;8.648;2023-08-17T02:00:46;2.85;;;2.03;;
54993;SDS011;40891;47.242;8.648;2023-08-17T02:03:11;5.65;;;2.17;;
54993;SDS011;40891;47.242;8.648;2023-08-17T02:05:37;3.80;;;2.00;;
54993;SDS011;40891;47.242;8.648;2023-08-17T02:08:02;3.85;;;2.10;;
54993;SDS011;40891;47.242;8.648;2023-08-17T02:10:28;9.52;;;2.30;;
54993;SDS011;40891;47.242;8.648;2023-08-17T02:12:53;5.28;;;2.13;;
54993;SDS011;40891;47.242;8.648;2023-08-17T02:15:18;3.03;;;2.08;;
54993;SDS011;40891;47.242;8.648;2023-08-17T02:17:43;3.50;;;2.00;;
54993;SDS011;40891;47.242;8.648;2023-08-17T02:20:09;2.45;;;1.90;;
54993;SDS011;40891;47.242;8.648;2023-08-17T02:22:35;4.03;;;2.00;;
54993;SDS011;40891;47.242;8.648;2023-08-17T02:25:00;3.97;;;1.90;;
54993;SDS011;40891;47.242;8.648;2023-08-17T02:27:26;3.30;;;1.98;;
54993;SDS011;40891;47.242;8.648;2023-08-17T02:29:51;3.40;;;2.05;;
54993;SDS011;40891;47.242;8.648;2023-08-17T02:32:17;3.05;;;1.85;;
54993;SDS011;40891;47.242;8.648;2023-08-17T02:34:42;2.20;;;2.00;;
54993;SDS011;40891;47.242;8.648;2023-08-17T02:37:07;4.10;;;1.70;;
54993;SDS011;40891;47.242;8.648;2023-08-17T02:39:32;4.50;;;1.80;;
54993;SDS011;40891;47.242;8.648;2023-08-17T02:41:58;2.35;;;2.15;;
54993;SDS011;40891;47.242;8.648;2023-08-17T02:44:23;6.47;;;2.30;;
54993;SDS011;40891;47.242;8.648;2023-08-17T02:46:48;3.70;;;2.95;;
54993;SDS011;40891;47.242;8.648;2023-08-17T02:49:14;3.42;;;2.00;;
54993;SDS011;40891;47.242;8.648;2023-08-17T02:51:39;5.55;;;2.10;;
54993;SDS011;40891;47.242;8.648;2023-08-17T02:54:04;3.17;;;2.40;;
54993;SDS011;40891;47.242;8.648;2023-08-17T02:56:30;4.22;;;2.42;;
54993;SDS011;40891;47.242;8.648;2023-08-17T02:58:55;2.95;;;2.13;;
54993;SDS011;40891;47.242;8.648;2023-08-17T03:01:20;6.03;;;2.20;;
54993;SDS011;40891;47.242;8.648;2023-08-17T03:03:45;5.63;;;2.40;;
54993;SDS011;40891;47.242;8.648;2023-08-17T03:06:11;4.25;;;2.53;;
54993;SDS011;40891;47.242;8.648;2023-08-17T03:08:36;2.88;;;2.58;;
54993;SDS011;40891;47.242;8.648;2023-08-17T03:11:01;3.35;;;1.98;;
54993;SDS011;40891;47.242;8.648;2023-08-17T03:13:27;4.22;;;2.47;;
54993;SDS011;40891;47.242;8.648;2023-08-17T03:15:52;4.22;;;1.95;;
54993;SDS011;40891;47.242;8.648;2023-08-17T03:18:17;5.95;;;2.33;;
54993;SDS011;40891;47.242;8.648;2023-08-17T03:20:44;4.65;;;1.98;;
54993;SDS011;40891;47.242;8.648;2023-08-17T03:23:10;2.67;;;1.98;;
54993;SDS011;40891;47.242;8.648;2023-08-17T03:25:35;3.85;;;2.25;;
54993;SDS011;40891;47.242;8.648;2023-08-17T03:28:01;5.20;;;2.05;;
54993;SDS011;40891;47.242;8.648;2023-08-17T03:30:26;3.63;;;2.30;;
54993;SDS011;40891;47.242;8.648;2023-08-17T03:32:52;4.57;;;2.10;;
54993;SDS011;40891;47.242;8.648;2023-08-17T03:35:17;6.13;;;2.40;;
54993;SDS011;40891;47.242;8.648;2023-08-17T03:37:42;3.72;;;2.10;;
54993;SDS011;40891;47.242;8.648;2023-08-17T03:40:08;4.60;;;2.20;;
54993;SDS011;40891;47.242;8.648;2023-08-17T03:42:33;3.03;;;2.25;;
54993;SDS011;40891;47.242;8.648;2023-08-17T03:44:58;3.17;;;2.08;;
54993;SDS011;40891;47.242;8.648;2023-08-17T03:47:24;6.00;;;2.13;;
54993;SDS011;40891;47.242;8.648;2023-08-17T03:49:49;3.13;;;2.30;;
54993;SDS011;40891;47.242;8.648;2023-08-17T03:52:14;6.85;;;2.00;;
54993;SDS011;40891;47.242;8.648;2023-08-17T03:54:39;4.65;;;2.38;;
54993;SDS011;40891;47.242;8.648;2023-08-17T03:57:05;3.78;;;2.30;;
54993;SDS011;40891;47.242;8.648;2023-08-17T03:59:30;5.68;;;1.90;;
54993;SDS011;40891;47.242;8.648;2023-08-17T04:01:55;5.82;;;2.05;;
54993;SDS011;40891;47.242;8.648;2023-08-17T04:04:21;3.42;;;2.17;;
54993;SDS011;40891;47.242;8.648;2023-08-17T04:06:46;6.30;;;2.30;;
54993;SDS011;40891;47.242;8.648;2023-08-17T04:09:12;4.93;;;2.03;;
54993;SDS011;40891;47.242;8.648;2023-08-17T04:11:37;3.20;;;2.25;;
54993;SDS011;40891;47.242;8.648;2023-08-17T04:14:03;6.40;;;2.30;;
54993;SDS011;40891;47.242;8.648;2023-08-17T04:16:29;4.65;;;2.40;;
54993;SDS011;40891;47.242;8.648;2023-08-17T04:18:54;3.17;;;2.05;;
54993;SDS011;40891;47.242;8.648;2023-08-17T04:21:20;4.00;;;2.17;;
54993;SDS011;40891;47.242;8.648;2023-08-17T04:23:45;5.07;;;2.40;;
54993;SDS011;40891;47.242;8.648;2023-08-17T04:26:10;3.50;;;2.20;;
54993;SDS011;40891;47.242;8.648;2023-08-17T04:28:36;6.28;;;2.55;;
54993;SDS011;40891;47.242;8.648;2023-08-17T04:31:01;4.57;;;2.30;;
54993;SDS011;40891;47.242;8.648;2023-08-17T04:33:26;3.22;;;2.22;;
54993;SDS011;40891;47.242;8.648;2023-08-17T04:35:52;5.43;;;2.55;;
54993;SDS011;40891;47.242;8.648;2023-08-17T04:38:17;3.47;;;2.30;;
54993;SDS011;40891;47.242;8.648;2023-08-17T04:40:42;4.15;;;2.30;;
54993;SDS011;40891;47.242;8.648;2023-08-17T04:43:09;7.90;;;2.47;;
54993;SDS011;40891;47.242;8.648;2023-08-17T04:45:35;3.95;;;2.20;;
54993;SDS011;40891;47.242;8.648;2023-08-17T04:48:00;4.03;;;2.22;;
54993;SDS011;40891;47.242;8.648;2023-08-17T04:50:25;7.50;;;2.25;;
54993;SDS011;40891;47.242;8.648;2023-08-17T04:52:51;4.22;;;2.22;;
54993;SDS011;40891;47.242;8.648;2023-08-17T04:55:16;6.13;;;2.25;;
54993;SDS011;40891;47.242;8.648;2023-08-17T04:57:41;6.97;;;2.40;;
54993;SDS011;40891;47.242;8.648;2023-08-17T05:00:07;4.25;;;2.20;;
54993;SDS011;40891;47.242;8.648;2023-08-17T05:02:34;2.95;;;2.00;;
54993;SDS011;40891;47.242;8.648;2023-08-17T05:05:03;2.38;;;1.85;;
54993;SDS011;40891;47.242;8.648;2023-08-17T05:07:29;4.07;;;2.30;;
54993;SDS011;40891;47.242;8.648;2023-08-17T05:09:55;5.35;;;2.47;;
54993;SDS011;40891;47.242;8.648;2023-08-17T05:12:20;3.70;;;1.92;;
54993;SDS011;40891;47.242;8.648;2023-08-17T05:14:45;4.57;;;2.10;;
54993;SDS011;40891;47.242;8.648;2023-08-17T05:17:11;10.23;;;2.42;;
54993;SDS011;40891;47.242;8.648;2023-08-17T05:19:36;5.05;;;2.30;;
54993;SDS011;40891;47.242;8.648;2023-08-17T05:22:03;3.83;;;2.05;;
54993;SDS011;40891;47.242;8.648;2023-08-17T05:24:28;3.50;;;2.20;;
54993;SDS011;40891;47.242;8.648;2023-08-17T05:26:53;3.53;;;2.10;;
54993;SDS011;40891;47.242;8.648;2023-08-17T05:29:19;2.20;;;1.83;;
54993;SDS011;40891;47.242;8.648;2023-08-17T05:31:44;4.32;;;1.95;;
54993;SDS011;40891;47.242;8.648;2023-08-17T05:34:09;3.10;;;2.00;;
54993;SDS011;40891;47.242;8.648;2023-08-17T05:36:35;2.45;;;1.95;;
54993;SDS011;40891;47.242;8.648;2023-08-17T05:39:00;6.15;;;2.17;;
54993;SDS011;40891;47.242;8.648;2023-08-17T05:41:25;2.75;;;2.00;;
54993;SDS011;40891;47.242;8.648;2023-08-17T05:43:50;2.40;;;2.10;;
54993;SDS011;40891;47.242;8.648;2023-08-17T05:46:16;4.47;;;2.20;;
54993;SDS011;40891;47.242;8.648;2023-08-17T05:48:41;3.90;;;1.88;;
54993;SDS011;40891;47.242;8.648;2023-08-17T05:51:07;2.25;;;2.03;;
54993;SDS011;40891;47.242;8.648;2023-08-17T05:53:32;5.20;;;2.13;;
54993;SDS011;40891;47.242;8.648;2023-08-17T05:55:57;2.40;;;1.90;;
54993;SDS011;40891;47.242;8.648;2023-08-17T05:58:23;3.60;;;2.05;;
54993;SDS011;40891;47.242;8.648;2023-08-17T06:00:49;3.47;;;2.03;;
54993;SDS011;40891;47.242;8.648;2023-08-17T06:03:14;2.35;;;2.00;;
54993;SDS011;40891;47.242;8.648;2023-08-17T06:05:39;5.47;;;2.10;;
54993;SDS011;40891;47.242;8.648;2023-08-17T06:08:05;2.17;;;1.88;;
54993;SDS011;40891;47.242;8.648;2023-08-17T06:10:30;3.35;;;1.95;;
54993;SDS011;40891;47.242;8.648;2023-08-17T06:12:56;5.85;;;2.00;;
54993;SDS011;40891;47.242;8.648;2023-08-17T06:15:22;6.00;;;2.15;;
54993;SDS011;40891;47.242;8.648;2023-08-17T06:17:48;3.90;;;2.17;;
54993;SDS011;40891;47.242;8.648;2023-08-17T06:20:17;3.65;;;2.13;;
54993;SDS011;40891;47.242;8.648;2023-08-17T06:22:43;4.07;;;2.05;;
54993;SDS011;40891;47.242;8.648;2023-08-17T06:25:08;3.92;;;1.83;;
54993;SDS011;40891;47.242;8.648;2023-08-17T06:27:37;4.80;;;2.10;;
54993;SDS011;40891;47.242;8.648;2023-08-17T06:30:02;3.17;;;2.10;;
54993;SDS011;40891;47.242;8.648;2023-08-17T06:32:31;5.00;;;2.13;;
54993;SDS011;40891;47.242;8.648;2023-08-17T06:34:57;6.00;;;2.40;;
54993;SDS011;40891;47.242;8.648;2023-08-17T06:37:22;8.55;;;2.00;;
54993;SDS011;40891;47.242;8.648;2023-08-17T06:39:47;5.15;;;2.15;;
54993;SDS011;40891;47.242;8.648;2023-08-17T06:42:13;3.65;;;2.20;;
54993;SDS011;40891;47.242;8.648;2023-08-17T06:44:38;4.95;;;2.05;;
54993;SDS011;40891;47.242;8.648;2023-08-17T06:47:03;4.07;;;1.98;;
54993;SDS011;40891;47.242;8.648;2023-08-17T06:49:30;4.05;;;1.90;;
54993;SDS011;40891;47.242;8.648;2023-08-17T06:51:56;3.03;;;1.92;;
54993;SDS011;40891;47.242;8.648;2023-08-17T06:54:21;3.95;;;1.98;;
54993;SDS011;40891;47.242;8.648;2023-08-17T06:56:46;6.57;;;2.25;;
54993;SDS011;40891;47.242;8.648;2023-08-17T06:59:12;2.92;;;1.90;;
54993;SDS011;40891;47.242;8.648;2023-08-17T07:01:37;3.17;;;1.73;;
54993;SDS011;40891;47.242;8.648;2023-08-17T07:04:02;2.75;;;1.83;;
54993;SDS011;40891;47.242;8.648;2023-08-17T07:06:28;3.90;;;2.10;;
54993;SDS011;40891;47.242;8.648;2023-08-17T07:08:54;4.80;;;1.70;;
54993;SDS011;40891;47.242;8.648;2023-08-17T07:11:19;4.63;;;2.17;;
54993;SDS011;40891;47.242;8.648;2023-08-17T07:13:44;2.20;;;1.90;;
54993;SDS011;40891;47.242;8.648;2023-08-17T07:16:10;4.32;;;1.95;;
54993;SDS011;40891;47.242;8.648;2023-08-17T07:18:35;4.20;;;1.92;;
54993;SDS011;40891;47.242;8.648;2023-08-17T07:21:00;8.73;;;2.08;;
54993;SDS011;40891;47.242;8.648;2023-08-17T07:23:25;4.38;;;2.00;;
54993;SDS011;40891;47.242;8.648;2023-08-17T07:25:51;4.95;;;1.67;;
54993;SDS011;40891;47.242;8.648;2023-08-17T07:28:16;2.30;;;1.67;;
54993;SDS011;40891;47.242;8.648;2023-08-17T07:30:41;7.15;;;2.00;;
54993;SDS011;40891;47.242;8.648;2023-08-17T07:33:07;2.88;;;1.80;;
54993;SDS011;40891;47.242;8.648;2023-08-17T07:35:32;4.45;;;2.10;;
54993;SDS011;40891;47.242;8.648;2023-08-17T07:37:57;2.40;;;1.90;;
54993;SDS011;40891;47.242;8.648;2023-08-17T07:40:23;2.17;;;1.98;;
54993;SDS011;40891;47.242;8.648;2023-08-17T07:42:48;1.92;;;1.70;;
54993;SDS011;40891;47.242;8.648;2023-08-17T07:45:13;4.63;;;2.10;;
54993;SDS011;40891;47.242;8.648;2023-08-17T07:47:39;3.15;;;2.05;;
54993;SDS011;40891;47.242;8.648;2023-08-17T07:50:04;4.00;;;1.80;;
54993;SDS011;40891;47.242;8.648;2023-08-17T07:52:30;3.83;;;1.85;;
54993;SDS011;40891;47.242;8.648;2023-08-17T07:54:56;4.70;;;2.58;;
54993;SDS011;40891;47.242;8.648;2023-08-17T07:57:21;5.25;;;2.20;;
54993;SDS011;40891;47.242;8.648;2023-08-17T07:59:46;4.00;;;2.30;;
54993;SDS011;40891;47.242;8.648;2023-08-17T08:02:12;4.45;;;2.35;;
54993;SDS011;40891;47.242;8.648;2023-08-17T08:04:38;5.00;;;2.03;;
54993;SDS011;40891;47.242;8.648;2023-08-17T08:07:03;5.88;;;2.33;;
54993;SDS011;40891;47.242;8.648;2023-08-17T08:09:28;6.95;;;2.30;;
54993;SDS011;40891;47.242;8.648;2023-08-17T08:11:54;3.45;;;2.10;;
54993;SDS011;40891;47.242;8.648;2023-08-17T08:14:19;3.90;;;2.00;;
54993;SDS011;40891;47.242;8.648;2023-08-17T08:16:44;3.72;;;2.00;;
54993;SDS011;40891;47.242;8.648;2023-08-17T08:19:09;4.93;;;1.85;;
54993;SDS011;40891;47.242;8.648;2023-08-17T08:21:35;6.72;;;2.33;;
54993;SDS011;40891;47.242;8.648;2023-08-17T08:24:00;4.75;;;1.90;;
54993;SDS011;40891;47.242;8.648;2023-08-17T08:26:25;2.55;;;2.00;;
54993;SDS011;40891;47.242;8.648;2023-08-17T08:28:50;3.47;;;1.98;;
54993;SDS011;40891;47.242;8.648;2023-08-17T08:31:16;5.38;;;2.55;;
54993;SDS011;40891;47.242;8.648;2023-08-17T08:33:41;3.53;;;2.10;;
54993;SDS011;40891;47.242;8.648;2023-08-17T08:36:06;3.65;;;2.35;;
54993;SDS011;40891;47.242;8.648;2023-08-17T08:38:32;3.80;;;2.50;;
54993;SDS011;40891;47.242;8.648;2023-08-17T08:40:57;6.95;;;2.60;;
54993;SDS011;40891;47.242;8.648;2023-08-17T08:43:23;5.53;;;2.67;;
54993;SDS011;40891;47.242;8.648;2023-08-17T08:45:49;4.30;;;2.70;;
54993;SDS011;40891;47.242;8.648;2023-08-17T08:48:18;4.32;;;2.50;;
54993;SDS011;40891;47.242;8.648;2023-08-17T08:50:44;5.20;;;2.25;;
54993;SDS011;40891;47.242;8.648;2023-08-17T08:53:13;6.88;;;2.75;;
54993;SDS011;40891;47.242;8.648;2023-08-17T08:55:52;11.45;;;2.33;;
54993;SDS011;40891;47.242;8.648;2023-08-17T08:58:22;5.13;;;2.70;;
54993;SDS011;40891;47.242;8.648;2023-08-17T09:00:49;6.97;;;3.00;;
54993;SDS011;40891;47.242;8.648;2023-08-17T09:03:15;4.63;;;2.53;;
54993;SDS011;40891;47.242;8.648;2023-08-17T09:05:44;3.08;;;2.45;;
54993;SDS011;40891;47.242;8.648;2023-08-17T09:08:11;3.67;;;2.47;;
54993;SDS011;40891;47.242;8.648;2023-08-17T09:10:38;4.35;;;2.42;;
54993;SDS011;40891;47.242;8.648;2023-08-17T09:13:03;4.50;;;2.63;;
54993;SDS011;40891;47.242;8.648;2023-08-17T09:15:28;4.30;;;2.72;;
54993;SDS011;40891;47.242;8.648;2023-08-17T09:17:54;6.03;;;2.60;;
54993;SDS011;40891;47.242;8.648;2023-08-17T09:23:19;6.10;;;2.90;;
54993;SDS011;40891;47.242;8.648;2023-08-17T09:25:46;3.78;;;2.65;;
54993;SDS011;40891;47.242;8.648;2023-08-17T09:28:13;3.35;;;2.42;;
54993;SDS011;40891;47.242;8.648;2023-08-17T09:30:53;3.75;;;2.55;;
54993;SDS011;40891;47.242;8.648;2023-08-17T09:33:28;4.00;;;2.63;;
54993;SDS011;40891;47.242;8.648;2023-08-17T09:35:55;2.80;;;2.13;;
54993;SDS011;40891;47.242;8.648;2023-08-17T09:38:22;5.05;;;2.70;;
54993;SDS011;40891;47.242;8.648;2023-08-17T09:40:48;7.15;;;2.85;;
54993;SDS011;40891;47.242;8.648;2023-08-17T09:43:14;7.78;;;3.15;;
54993;SDS011;40891;47.242;8.648;2023-08-17T09:45:40;5.63;;;2.83;;
54993;SDS011;40891;47.242;8.648;2023-08-17T09:48:09;4.30;;;2.83;;
54993;SDS011;40891;47.242;8.648;2023-08-17T09:50:35;5.18;;;2.53;;
54993;SDS011;40891;47.242;8.648;2023-08-17T09:53:03;4.43;;;2.20;;
54993;SDS011;40891;47.242;8.648;2023-08-17T09:55:32;6.07;;;2.40;;
54993;SDS011;40891;47.242;8.648;2023-08-17T09:57:58;6.68;;;3.65;;
54993;SDS011;40891;47.242;8.648;2023-08-17T10:00:25;4.82;;;3.70;;
54993;SDS011;40891;47.242;8.648;2023-08-17T10:02:52;6.07;;;3.70;;
54993;SDS011;40891;47.242;8.648;2023-08-17T10:05:19;8.52;;;4.22;;
54993;SDS011;40891;47.242;8.648;2023-08-17T10:07:51;7.40;;;4.35;;
54993;SDS011;40891;47.242;8.648;2023-08-17T10:10:21;8.88;;;3.20;;
54993;SDS011;40891;47.242;8.648;2023-08-17T10:12:58;7.63;;;3.03;;
54993;SDS011;40891;47.242;8.648;2023-08-17T10:15:32;6.57;;;3.60;;
54993;SDS011;40891;47.242;8.648;2023-08-17T10:18:02;9.15;;;3.63;;
54993;SDS011;40891;47.242;8.648;2023-08-17T10:20:36;6.45;;;3.33;;
54993;SDS011;40891;47.242;8.648;2023-08-17T10:23:37;10.00;;;4.60;;
54993;SDS011;40891;47.242;8.648;2023-08-17T10:25:56;8.18;;;5.00;;
54993;SDS011;40891;47.242;8.648;2023-08-17T10:28:21;11.10;;;5.20;;
54993;SDS011;40891;47.242;8.648;2023-08-17T10:30:48;16.55;;;5.28;;
54993;SDS011;40891;47.242;8.648;2023-08-17T10:33:13;10.02;;;4.75;;
54993;SDS011;40891;47.242;8.648;2023-08-17T10:35:40;8.18;;;4.53;;
54993;SDS011;40891;47.242;8.648;2023-08-17T10:38:06;6.97;;;4.07;;
54993;SDS011;40891;47.242;8.648;2023-08-17T10:40:35;5.10;;;4.60;;
54993;SDS011;40891;47.242;8.648;2023-08-17T10:43:02;10.60;;;4.38;;
54993;SDS011;40891;47.242;8.648;2023-08-17T10:45:28;9.55;;;4.63;;
54993;SDS011;40891;47.242;8.648;2023-08-17T10:48:37;6.03;;;5.03;;
54993;SDS011;40891;47.242;8.648;2023-08-17T10:50:58;4.40;;;3.85;;
54993;SDS011;40891;47.242;8.648;2023-08-17T10:53:33;6.78;;;3.65;;
54993;SDS011;40891;47.242;8.648;2023-08-17T10:56:00;7.55;;;3.88;;
54993;SDS011;40891;47.242;8.648;2023-08-17T10:58:25;8.90;;;4.32;;
54993;SDS011;40891;47.242;8.648;2023-08-17T11:00:54;11.10;;;3.90;;
54993;SDS011;40891;47.242;8.648;2023-08-17T11:03:20;10.02;;;4.78;;
54993;SDS011;40891;47.242;8.648;2023-08-17T11:08:39;6.40;;;4.05;;
54993;SDS011;40891;47.242;8.648;2023-08-17T11:11:15;6.05;;;4.43;;
54993;SDS011;40891;47.242;8.648;2023-08-17T11:13:42;6.88;;;3.90;;
54993;SDS011;40891;47.242;8.648;2023-08-17T11:16:09;5.25;;;3.67;;
54993;SDS011;40891;47.242;8.648;2023-08-17T11:18:36;6.80;;;3.88;;
54993;SDS011;40891;47.242;8.648;2023-08-17T11:21:02;6.00;;;3.65;;
54993;SDS011;40891;47.242;8.648;2023-08-17T11:23:29;10.73;;;3.53;;
54993;SDS011;40891;47.242;8.648;2023-08-17T11:25:55;7.88;;;3.70;;
54993;SDS011;40891;47.242;8.648;2023-08-17T11:28:21;8.90;;;3.65;;
54993;SDS011;40891;47.242;8.648;2023-08-17T11:31:00;6.72;;;4.40;;
54993;SDS011;40891;47.242;8.648;2023-08-17T11:33:28;7.72;;;4.38;;
54993;SDS011;40891;47.242;8.648;2023-08-17T11:35:54;6.15;;;4.32;;
54993;SDS011;40891;47.242;8.648;2023-08-17T11:38:20;7.85;;;5.20;;
54993;SDS011;40891;47.242;8.648;2023-08-17T11:40:45;8.52;;;4.47;;
54993;SDS011;40891;47.242;8.648;2023-08-17T11:43:11;8.38;;;4.25;;
54993;SDS011;40891;47.242;8.648;2023-08-17T11:45:36;8.00;;;4.05;;
54993;SDS011;40891;47.242;8.648;2023-08-17T11:48:01;6.40;;;3.70;;
54993;SDS011;40891;47.242;8.648;2023-08-17T11:50:28;8.15;;;3.70;;
54993;SDS011;40891;47.242;8.648;2023-08-17T11:52:53;6.75;;;3.30;;
54993;SDS011;40891;47.242;8.648;2023-08-17T11:55:19;9.18;;;3.50;;
54993;SDS011;40891;47.242;8.648;2023-08-17T11:57:45;6.93;;;3.78;;
54993;SDS011;40891;47.242;8.648;2023-08-17T12:00:16;5.90;;;3.42;;
54993;SDS011;40891;47.242;8.648;2023-08-17T12:02:43;7.38;;;3.20;;
54993;SDS011;40891;47.242;8.648;2023-08-17T12:05:12;7.57;;;3.03;;
54993;SDS011;40891;47.242;8.648;2023-08-17T12:07:37;7.70;;;3.00;;
54993;SDS011;40891;47.242;8.648;2023-08-17T12:10:02;5.85;;;2.72;;
54993;SDS011;40891;47.242;8.648;2023-08-17T12:12:29;5.63;;;3.00;;
54993;SDS011;40891;47.242;8.648;2023-08-17T12:14:54;8.18;;;3.28;;
54993;SDS011;40891;47.242;8.648;2023-08-17T12:17:20;11.93;;;3.10;;
54993;SDS011;40891;47.242;8.648;2023-08-17T12:19:49;7.55;;;2.80;;
54993;SDS011;40891;47.242;8.648;2023-08-17T12:22:18;5.88;;;3.10;;
54993;SDS011;40891;47.242;8.648;2023-08-17T12:24:44;9.27;;;2.67;;
54993;SDS011;40891;47.242;8.648;2023-08-17T12:27:09;5.55;;;3.05;;
54993;SDS011;40891;47.242;8.648;2023-08-17T12:29:51;5.95;;;2.60;;
54993;SDS011;40891;47.242;8.648;2023-08-17T12:32:17;5.88;;;2.90;;
54993;SDS011;40891;47.242;8.648;2023-08-17T12:34:43;8.70;;;2.55;;
54993;SDS011;40891;47.242;8.648;2023-08-17T12:37:09;5.88;;;2.63;;
54993;SDS011;40891;47.242;8.648;2023-08-17T12:39:35;3.85;;;2.47;;
54993;SDS011;40891;47.242;8.648;2023-08-17T12:42:01;7.80;;;3.05;;
54993;SDS011;40891;47.242;8.648;2023-08-17T12:44:26;6.57;;;2.70;;
54993;SDS011;40891;47.242;8.648;2023-08-17T12:46:52;5.13;;;2.38;;
54993;SDS011;40891;47.242;8.648;2023-08-17T12:49:17;3.75;;;2.22;;
54993;SDS011;40891;47.242;8.648;2023-08-17T12:51:42;6.85;;;2.88;;
54993;SDS011;40891;47.242;8.648;2023-08-17T12:54:07;6.10;;;2.60;;
54993;SDS011;40891;47.242;8.648;2023-08-17T12:56:33;6.03;;;2.90;;
54993;SDS011;40891;47.242;8.648;2023-08-17T12:58:58;5.07;;;3.15;;
54993;SDS011;40891;47.242;8.648;2023-08-17T13:01:23;8.65;;;3.08;;
54993;SDS011;40891;47.242;8.648;2023-08-17T13:03:49;9.23;;;3.60;;
54993;SDS011;40891;47.242;8.648;2023-08-17T13:06:14;6.90;;;4.05;;
54993;SDS011;40891;47.242;8.648;2023-08-17T13:08:39;9.38;;;3.70;;
54993;SDS011;40891;47.242;8.648;2023-08-17T13:11:04;8.60;;;3.80;;
54993;SDS011;40891;47.242;8.648;2023-08-17T13:13:30;6.97;;;3.65;;
54993;SDS011;40891;47.242;8.648;2023-08-17T13:15:55;6.57;;;3.40;;
54993;SDS011;40891;47.242;8.648;2023-08-17T13:18:21;5.18;;;3.72;;
54993;SDS011;40891;47.242;8.648;2023-08-17T13:20:46;8.90;;;3.30;;
54993;SDS011;40891;47.242;8.648;2023-08-17T13:23:11;8.85;;;3.25;;
54993;SDS011;40891;47.242;8.648;2023-08-17T13:25:37;8.95;;;3.97;;
54993;SDS011;40891;47.242;8.648;2023-08-17T13:28:02;7.45;;;3.33;;
54993;SDS011;40891;47.242;8.648;2023-08-17T13:30:28;7.35;;;3.85;;
54993;SDS011;40891;47.242;8.648;2023-08-17T13:32:53;9.63;;;4.00;;
54993;SDS011;40891;47.242;8.648;2023-08-17T13:35:18;6.05;;;3.50;;
54993;SDS011;40891;47.242;8.648;2023-08-17T13:37:44;9.30;;;3.10;;
54993;SDS011;40891;47.242;8.648;2023-08-17T13:40:09;5.15;;;3.22;;
54993;SDS011;40891;47.242;8.648;2023-08-17T13:42:35;5.30;;;3.10;;
54993;SDS011;40891;47.242;8.648;2023-08-17T13:45:01;4.63;;;3.00;;
54993;SDS011;40891;47.242;8.648;2023-08-17T13:47:28;7.63;;;3.60;;
54993;SDS011;40891;47.242;8.648;2023-08-17T13:49:53;4.90;;;3.70;;
54993;SDS011;40891;47.242;8.648;2023-08-17T13:52:19;4.53;;;3.55;;
54993;SDS011;40891;47.242;8.648;2023-08-17T13:54:44;5.43;;;3.38;;
54993;SDS011;40891;47.242;8.648;2023-08-17T13:57:10;10.73;;;3.40;;
54993;SDS011;40891;47.242;8.648;2023-08-17T13:59:35;7.25;;;3.42;;
54993;SDS011;40891;47.242;8.648;2023-08-17T14:02:01;6.57;;;3.53;;
54993;SDS011;40891;47.242;8.648;2023-08-17T14:04:26;8.88;;;3.70;;
54993;SDS011;40891;47.242;8.648;2023-08-17T14:06:51;8.13;;;3.45;;
54993;SDS011;40891;47.242;8.648;2023-08-17T14:09:17;7.47;;;3.35;;
54993;SDS011;40891;47.242;8.648;2023-08-17T14:11:42;5.72;;;3.45;;
54993;SDS011;40891;47.242;8.648;2023-08-17T14:14:07;4.38;;;3.28;;
54993;SDS011;40891;47.242;8.648;2023-08-17T14:16:33;5.25;;;3.00;;
54993;SDS011;40891;47.242;8.648;2023-08-17T14:18:58;7.15;;;3.10;;
54993;SDS011;40891;47.242;8.648;2023-08-17T14:21:23;8.50;;;2.92;;
54993;SDS011;40891;47.242;8.648;2023-08-17T14:23:49;7.68;;;2.53;;
54993;SDS011;40891;47.242;8.648;2023-08-17T14:26:14;6.75;;;3.03;;
54993;SDS011;40891;47.242;8.648;2023-08-17T14:28:40;4.97;;;2.67;;
54993;SDS011;40891;47.242;8.648;2023-08-17T14:31:05;6.55;;;2.85;;
54993;SDS011;40891;47.242;8.648;2023-08-17T14:33:30;6.72;;;3.00;;
54993;SDS011;40891;47.242;8.648;2023-08-17T14:35:56;7.65;;;2.70;;
54993;SDS011;40891;47.242;8.648;2023-08-17T14:38:21;7.68;;;2.83;;
54993;SDS011;40891;47.242;8.648;2023-08-17T14:40:47;5.60;;;2.47;;
54993;SDS011;40891;47.242;8.648;2023-08-17T14:43:13;6.63;;;2.78;;
54993;SDS011;40891;47.242;8.648;2023-08-17T14:45:39;5.90;;;2.47;;
54993;SDS011;40891;47.242;8.648;2023-08-17T14:48:05;8.48;;;2.45;;
54993;SDS011;40891;47.242;8.648;2023-08-17T14:50:31;7.22;;;2.45;;
54993;SDS011;40891;47.242;8.648;2023-08-17T14:52:56;6.03;;;2.63;;
54993;SDS011;40891;47.242;8.648;2023-08-17T14:55:21;6.13;;;2.47;;